sensor_id;sensor_type;location;lat;lon;timestamp;pressure;altitude;pressure_sealevel;temperature;humidity
71996;BME280;59862;47.732;7.346;2023-04-27T00:02:03;98144.39;;;10.29;67.42
71996;BME280;59862;47.732;7.346;2023-04-27T00:04:31;98139.44;;;10.18;67.77
71996;BME280;59862;47.732;7.346;2023-04-27T00:06:59;98141.52;;;10.04;68.04
71996;BME280;59862;47.732;7.346;2023-04-27T00:09:26;98142.59;;;9.91;68.22
71996;BME280;59862;47.732;7.346;2023-04-27T00:11:54;98145.66;;;9.80;68.80
71996;BME280;59862;47.732;7.346;2023-04-27T00:14:22;98140.30;;;9.80;68.32
71996;BME280;59862;47.732;7.346;2023-04-27T00:16:51;98140.63;;;9.85;68.56
71996;BME280;59862;47.732;7.346;2023-04-27T00:19:18;98140.57;;;9.93;68.38
71996;BME280;59862;47.732;7.346;2023-04-27T00:21:46;98143.54;;;10.02;68.20
71996;BME280;59862;47.732;7.346;2023-04-27T00:24:13;98138.31;;;10.09;68.27
71996;BME280;59862;47.732;7.346;2023-04-27T00:26:41;98139.81;;;10.15;67.74
71996;BME280;59862;47.732;7.346;2023-04-27T00:29:08;98138.44;;;10.19;67.92
71996;BME280;59862;47.732;7.346;2023-04-27T00:31:36;98139.94;;;10.22;68.37
71996;BME280;59862;47.732;7.346;2023-04-27T00:34:03;98138.63;;;10.18;67.61
71996;BME280;59862;47.732;7.346;2023-04-27T00:36:33;98142.12;;;10.18;68.55
71996;BME280;59862;47.732;7.346;2023-04-27T00:39:01;98136.94;;;10.17;68.77
71996;BME280;59862;47.732;7.346;2023-04-27T00:41:29;98135.23;;;10.24;68.31
71996;BME280;59862;47.732;7.346;2023-04-27T00:43:58;98129.33;;;10.28;68.31
71996;BME280;59862;47.732;7.346;2023-04-27T00:46:25;98132.17;;;10.31;68.10
71996;BME280;59862;47.732;7.346;2023-04-27T00:48:54;98118.34;;;10.38;68.10
71996;BME280;59862;47.732;7.346;2023-04-27T00:51:23;98123.21;;;10.38;68.68
71996;BME280;59862;47.732;7.346;2023-04-27T00:53:52;98126.62;;;10.32;68.27
71996;BME280;59862;47.732;7.346;2023-04-27T00:56:20;98124.94;;;10.31;67.98
71996;BME280;59862;47.732;7.346;2023-04-27T00:58:48;98128.80;;;10.33;67.80
71996;BME280;59862;47.732;7.346;2023-04-27T01:01:16;98129.61;;;10.33;67.81
71996;BME280;59862;47.732;7.346;2023-04-27T01:03:46;98134.97;;;10.33;67.70
71996;BME280;59862;47.732;7.346;2023-04-27T01:06:14;98133.33;;;10.32;68.17
71996;BME280;59862;47.732;7.346;2023-04-27T01:08:41;98137.34;;;10.32;67.68
71996;BME280;59862;47.732;7.346;2023-04-27T01:11:09;98136.00;;;10.32;68.14
71996;BME280;59862;47.732;7.346;2023-04-27T01:13:36;98135.31;;;10.34;68.37
71996;BME280;59862;47.732;7.346;2023-04-27T01:16:05;98130.45;;;10.34;68.05
71996;BME280;59862;47.732;7.346;2023-04-27T01:18:32;98138.97;;;10.37;68.00
71996;BME280;59862;47.732;7.346;2023-04-27T01:21:00;98131.95;;;10.36;67.89
71996;BME280;59862;47.732;7.346;2023-04-27T01:23:28;98132.67;;;10.30;68.25
71996;BME280;59862;47.732;7.346;2023-04-27T01:25:56;98132.05;;;10.24;68.14
71996;BME280;59862;47.732;7.346;2023-04-27T01:28:23;98134.10;;;10.14;68.22
71996;BME280;59862;47.732;7.346;2023-04-27T01:30:51;98126.93;;;10.07;69.07
71996;BME280;59862;47.732;7.346;2023-04-27T01:33:18;98135.16;;;10.01;68.93
71996;BME280;59862;47.732;7.346;2023-04-27T01:35:46;98128.98;;;9.97;69.16
71996;BME280;59862;47.732;7.346;2023-04-27T01:38:13;98125.48;;;9.92;69.15
71996;BME280;59862;47.732;7.346;2023-04-27T01:40:40;98122.52;;;9.87;69.08
71996;BME280;59862;47.732;7.346;2023-04-27T01:43:08;98124.85;;;9.86;69.02
71996;BME280;59862;47.732;7.346;2023-04-27T01:45:35;98123.20;;;9.85;69.29
71996;BME280;59862;47.732;7.346;2023-04-27T01:48:03;98127.56;;;9.82;69.15
71996;BME280;59862;47.732;7.346;2023-04-27T01:50:30;98121.20;;;9.79;70.24
71996;BME280;59862;47.732;7.346;2023-04-27T01:52:58;98119.57;;;9.74;70.75
71996;BME280;59862;47.732;7.346;2023-04-27T01:55:25;98120.91;;;9.74;70.06
71996;BME280;59862;47.732;7.346;2023-04-27T01:57:53;98123.25;;;9.73;70.32
71996;BME280;59862;47.732;7.346;2023-04-27T02:00:20;98127.77;;;9.72;70.22
71996;BME280;59862;47.732;7.346;2023-04-27T02:02:47;98128.97;;;9.70;70.69
71996;BME280;59862;47.732;7.346;2023-04-27T02:05:16;98120.45;;;9.62;71.13
71996;BME280;59862;47.732;7.346;2023-04-27T02:07:44;98121.11;;;9.64;71.14
71996;BME280;59862;47.732;7.346;2023-04-27T02:10:11;98121.11;;;9.64;71.34
71996;BME280;59862;47.732;7.346;2023-04-27T02:12:39;98116.26;;;9.68;71.34
71996;BME280;59862;47.732;7.346;2023-04-27T02:15:07;98124.61;;;9.69;71.28
71996;BME280;59862;47.732;7.346;2023-04-27T02:17:34;98123.62;;;9.70;71.51
71996;BME280;59862;47.732;7.346;2023-04-27T02:20:04;98121.93;;;9.69;71.51
71996;BME280;59862;47.732;7.346;2023-04-27T02:22:36;98120.62;;;9.65;70.86
71996;BME280;59862;47.732;7.346;2023-04-27T02:25:03;98120.12;;;9.65;70.79
71996;BME280;59862;47.732;7.346;2023-04-27T02:27:31;98119.91;;;9.71;70.95
71996;BME280;59862;47.732;7.346;2023-04-27T02:30:02;98121.59;;;9.72;71.25
71996;BME280;59862;47.732;7.346;2023-04-27T02:32:27;98120.56;;;9.73;71.24
71996;BME280;59862;47.732;7.346;2023-04-27T02:34:55;98119.89;;;9.75;71.70
71996;BME280;59862;47.732;7.346;2023-04-27T02:37:22;98122.59;;;9.71;71.68
71996;BME280;59862;47.732;7.346;2023-04-27T02:39:50;98118.25;;;9.66;71.87
71996;BME280;59862;47.732;7.346;2023-04-27T02:42:17;98127.11;;;9.70;71.43
71996;BME280;59862;47.732;7.346;2023-04-27T02:44:44;98127.27;;;9.73;71.19
71996;BME280;59862;47.732;7.346;2023-04-27T02:47:12;98131.64;;;9.66;71.46
71996;BME280;59862;47.732;7.346;2023-04-27T02:49:39;98126.95;;;9.72;71.72
71996;BME280;59862;47.732;7.346;2023-04-27T02:52:07;98121.07;;;9.76;71.94
71996;BME280;59862;47.732;7.346;2023-04-27T02:54:35;98120.70;;;9.79;71.65
71996;BME280;59862;47.732;7.346;2023-04-27T02:57:02;98120.70;;;9.79;71.65
71996;BME280;59862;47.732;7.346;2023-04-27T02:59:30;98127.27;;;9.73;71.78
71996;BME280;59862;47.732;7.346;2023-04-27T03:01:57;98126.61;;;9.71;72.21
71996;BME280;59862;47.732;7.346;2023-04-27T03:04:24;98130.72;;;9.47;72.46
71996;BME280;59862;47.732;7.346;2023-04-27T03:06:53;98126.02;;;9.57;72.44
71996;BME280;59862;47.732;7.346;2023-04-27T03:09:20;98132.34;;;9.68;72.57
71996;BME280;59862;47.732;7.346;2023-04-27T03:11:47;98134.17;;;9.67;72.37
71996;BME280;59862;47.732;7.346;2023-04-27T03:14:15;98126.28;;;9.66;72.43
71996;BME280;59862;47.732;7.346;2023-04-27T03:16:43;98131.85;;;9.60;72.23
71996;BME280;59862;47.732;7.346;2023-04-27T03:19:10;98125.87;;;9.50;72.51
71996;BME280;59862;47.732;7.346;2023-04-27T03:21:38;98127.69;;;9.54;72.91
71996;BME280;59862;47.732;7.346;2023-04-27T03:24:05;98124.16;;;9.61;72.69
71996;BME280;59862;47.732;7.346;2023-04-27T03:26:33;98126.28;;;9.66;72.26
71996;BME280;59862;47.732;7.346;2023-04-27T03:29:00;98130.79;;;9.73;72.23
71996;BME280;59862;47.732;7.346;2023-04-27T03:31:28;98126.91;;;9.80;71.82
71996;BME280;59862;47.732;7.346;2023-04-27T03:33:55;98126.91;;;9.80;71.82
71996;BME280;59862;47.732;7.346;2023-04-27T03:36:23;98123.89;;;9.83;71.93
71996;BME280;59862;47.732;7.346;2023-04-27T03:38:50;98121.20;;;9.83;71.92
71996;BME280;59862;47.732;7.346;2023-04-27T03:41:18;98126.72;;;9.81;71.76
71996;BME280;59862;47.732;7.346;2023-04-27T03:43:45;98129.06;;;9.84;71.68
71996;BME280;59862;47.732;7.346;2023-04-27T03:46:12;98129.74;;;9.82;71.97
71996;BME280;59862;47.732;7.346;2023-04-27T03:48:40;98118.86;;;9.80;71.90
71996;BME280;59862;47.732;7.346;2023-04-27T03:51:09;98131.40;;;9.83;71.85
71996;BME280;59862;47.732;7.346;2023-04-27T03:53:36;98131.40;;;9.83;71.85
71996;BME280;59862;47.732;7.346;2023-04-27T03:56:04;98126.56;;;9.83;71.79
71996;BME280;59862;47.732;7.346;2023-04-27T03:58:32;98126.91;;;9.80;71.56
71996;BME280;59862;47.732;7.346;2023-04-27T04:00:59;98126.91;;;9.80;71.56
71996;BME280;59862;47.732;7.346;2023-04-27T04:03:26;98126.72;;;9.81;71.67
71996;BME280;59862;47.732;7.346;2023-04-27T04:05:54;98123.88;;;9.79;71.81
71996;BME280;59862;47.732;7.346;2023-04-27T04:08:21;98132.45;;;9.78;71.95
71996;BME280;59862;47.732;7.346;2023-04-27T04:10:49;98118.20;;;9.78;71.89
71996;BME280;59862;47.732;7.346;2023-04-27T04:13:16;98128.31;;;9.64;73.24
71996;BME280;59862;47.732;7.346;2023-04-27T04:15:44;98128.31;;;9.64;73.24
71996;BME280;59862;47.732;7.346;2023-04-27T04:18:11;98127.02;;;9.56;73.43
71996;BME280;59862;47.732;7.346;2023-04-27T04:20:38;98126.70;;;9.55;73.45
71996;BME280;59862;47.732;7.346;2023-04-27T04:23:06;98128.35;;;9.56;73.53
71996;BME280;59862;47.732;7.346;2023-04-27T04:25:33;98123.66;;;9.58;73.40
71996;BME280;59862;47.732;7.346;2023-04-27T04:28:01;98136.37;;;9.60;73.22
71996;BME280;59862;47.732;7.346;2023-04-27T04:30:29;98135.19;;;9.62;73.40
71996;BME280;59862;47.732;7.346;2023-04-27T04:32:56;98132.51;;;9.62;73.49
71996;BME280;59862;47.732;7.346;2023-04-27T04:35:23;98135.69;;;9.62;73.42
71996;BME280;59862;47.732;7.346;2023-04-27T04:37:51;98133.84;;;9.62;73.37
71996;BME280;59862;47.732;7.346;2023-04-27T04:40:18;98134.34;;;9.62;73.65
71996;BME280;59862;47.732;7.346;2023-04-27T04:42:46;98133.03;;;9.58;73.63
71996;BME280;59862;47.732;7.346;2023-04-27T04:45:14;98138.34;;;9.66;73.61
71996;BME280;59862;47.732;7.346;2023-04-27T04:47:41;98134.53;;;9.60;72.75
71996;BME280;59862;47.732;7.346;2023-04-27T04:50:09;98147.72;;;9.66;73.90
71996;BME280;59862;47.732;7.346;2023-04-27T04:52:37;98147.72;;;9.66;73.90
71996;BME280;59862;47.732;7.346;2023-04-27T04:55:05;98141.02;;;9.66;73.39
71996;BME280;59862;47.732;7.346;2023-04-27T04:57:33;98147.20;;;9.74;72.86
71996;BME280;59862;47.732;7.346;2023-04-27T05:00:01;98151.70;;;9.78;72.50
71996;BME280;59862;47.732;7.346;2023-04-27T05:02:29;98145.84;;;9.78;72.62
71996;BME280;59862;47.732;7.346;2023-04-27T05:04:56;98152.03;;;9.83;72.53
71996;BME280;59862;47.732;7.346;2023-04-27T05:07:24;98168.38;;;9.92;72.21
71996;BME280;59862;47.732;7.346;2023-04-27T05:09:52;98165.53;;;9.93;72.14
71996;BME280;59862;47.732;7.346;2023-04-27T05:12:19;98168.03;;;9.95;71.70
71996;BME280;59862;47.732;7.346;2023-04-27T05:14:47;98170.50;;;10.01;71.74
71996;BME280;59862;47.732;7.346;2023-04-27T05:17:14;98164.77;;;10.08;72.25
71996;BME280;59862;47.732;7.346;2023-04-27T05:19:41;98160.08;;;10.14;72.04
71996;BME280;59862;47.732;7.346;2023-04-27T05:22:09;98167.56;;;10.22;71.51
71996;BME280;59862;47.732;7.346;2023-04-27T05:24:36;98174.05;;;10.32;70.88
71996;BME280;59862;47.732;7.346;2023-04-27T05:27:04;98169.66;;;10.39;72.25
71996;BME280;59862;47.732;7.346;2023-04-27T05:29:31;98174.08;;;10.50;72.58
71996;BME280;59862;47.732;7.346;2023-04-27T05:31:59;98179.56;;;10.57;71.71
71996;BME280;59862;47.732;7.346;2023-04-27T05:34:26;98173.28;;;10.68;71.37
71996;BME280;59862;47.732;7.346;2023-04-27T05:36:54;98170.91;;;10.74;70.78
71996;BME280;59862;47.732;7.346;2023-04-27T05:39:21;98179.22;;;10.83;70.76
71996;BME280;59862;47.732;7.346;2023-04-27T05:41:48;98180.80;;;10.92;70.78
71996;BME280;59862;47.732;7.346;2023-04-27T05:44:16;98176.34;;;11.03;70.55
71996;BME280;59862;47.732;7.346;2023-04-27T05:46:44;98177.98;;;11.08;69.37
71996;BME280;59862;47.732;7.346;2023-04-27T05:49:11;98177.59;;;11.15;69.10
71996;BME280;59862;47.732;7.346;2023-04-27T05:51:39;98177.84;;;11.24;68.51
71996;BME280;59862;47.732;7.346;2023-04-27T05:54:07;98181.38;;;11.39;68.47
71996;BME280;59862;47.732;7.346;2023-04-27T05:56:35;98179.59;;;11.46;67.17
71996;BME280;59862;47.732;7.346;2023-04-27T05:59:03;98180.83;;;11.58;67.12
71996;BME280;59862;47.732;7.346;2023-04-27T06:01:30;98181.09;;;11.67;65.21
71996;BME280;59862;47.732;7.346;2023-04-27T06:03:58;98189.27;;;11.70;65.01
71996;BME280;59862;47.732;7.346;2023-04-27T06:06:29;98190.66;;;11.80;64.27
71996;BME280;59862;47.732;7.346;2023-04-27T06:08:56;98192.52;;;11.94;64.42
71996;BME280;59862;47.732;7.346;2023-04-27T06:11:24;98191.52;;;11.62;64.03
71996;BME280;59862;47.732;7.346;2023-04-27T06:13:52;98191.84;;;11.67;64.55
71996;BME280;59862;47.732;7.346;2023-04-27T06:16:19;98192.59;;;11.76;64.83
71996;BME280;59862;47.732;7.346;2023-04-27T06:18:48;98194.92;;;11.89;65.11
71996;BME280;59862;47.732;7.346;2023-04-27T06:21:16;98197.46;;;11.87;65.52
71996;BME280;59862;47.732;7.346;2023-04-27T06:23:43;98196.13;;;11.87;65.29
71996;BME280;59862;47.732;7.346;2023-04-27T06:26:11;98194.95;;;12.14;65.23
71996;BME280;59862;47.732;7.346;2023-04-27T06:28:38;98201.19;;;12.26;64.76
71996;BME280;59862;47.732;7.346;2023-04-27T06:31:05;98195.25;;;12.15;64.54
71996;BME280;59862;47.732;7.346;2023-04-27T06:33:33;98197.70;;;12.10;65.06
71996;BME280;59862;47.732;7.346;2023-04-27T06:36:01;98200.95;;;12.06;65.52
71996;BME280;59862;47.732;7.346;2023-04-27T06:38:28;98196.85;;;11.95;65.95
71996;BME280;59862;47.732;7.346;2023-04-27T06:40:56;98199.46;;;12.03;65.18
71996;BME280;59862;47.732;7.346;2023-04-27T06:43:24;98200.16;;;12.27;65.59
71996;BME280;59862;47.732;7.346;2023-04-27T06:45:52;98204.11;;;12.20;64.66
71996;BME280;59862;47.732;7.346;2023-04-27T06:48:19;98202.30;;;12.42;65.20
71996;BME280;59862;47.732;7.346;2023-04-27T06:50:47;98206.41;;;12.48;64.65
71996;BME280;59862;47.732;7.346;2023-04-27T06:53:14;98204.94;;;12.67;64.43
71996;BME280;59862;47.732;7.346;2023-04-27T06:55:42;98201.94;;;12.66;63.35
71996;BME280;59862;47.732;7.346;2023-04-27T06:58:10;98203.28;;;12.66;63.50
71996;BME280;59862;47.732;7.346;2023-04-27T07:00:37;98204.50;;;12.84;63.96
71996;BME280;59862;47.732;7.346;2023-04-27T07:03:05;98210.73;;;13.06;64.10
71996;BME280;59862;47.732;7.346;2023-04-27T07:05:33;98202.06;;;13.00;63.04
71996;BME280;59862;47.732;7.346;2023-04-27T07:08:01;98206.94;;;13.01;63.18
71996;BME280;59862;47.732;7.346;2023-04-27T07:10:29;98211.22;;;12.53;63.84
71996;BME280;59862;47.732;7.346;2023-04-27T07:12:56;98206.11;;;12.58;64.03
71996;BME280;59862;47.732;7.346;2023-04-27T07:15:24;98205.57;;;12.58;65.30
71996;BME280;59862;47.732;7.346;2023-04-27T07:17:52;98200.53;;;12.70;64.31
71996;BME280;59862;47.732;7.346;2023-04-27T07:20:19;98206.18;;;12.64;64.33
71996;BME280;59862;47.732;7.346;2023-04-27T07:22:47;98195.91;;;12.43;64.96
71996;BME280;59862;47.732;7.346;2023-04-27T07:25:15;98199.66;;;12.38;64.70
71996;BME280;59862;47.732;7.346;2023-04-27T07:27:42;98201.59;;;12.44;64.83
71996;BME280;59862;47.732;7.346;2023-04-27T07:30:11;98197.77;;;12.63;64.86
71996;BME280;59862;47.732;7.346;2023-04-27T07:32:40;98195.14;;;12.24;64.58
71996;BME280;59862;47.732;7.346;2023-04-27T07:35:08;98197.95;;;12.41;64.63
71996;BME280;59862;47.732;7.346;2023-04-27T07:37:36;98200.09;;;12.66;63.04
71996;BME280;59862;47.732;7.346;2023-04-27T07:40:05;98198.67;;;12.81;62.90
71996;BME280;59862;47.732;7.346;2023-04-27T07:42:37;98199.38;;;12.79;62.68
71996;BME280;59862;47.732;7.346;2023-04-27T07:45:07;98197.52;;;12.90;61.73
71996;BME280;59862;47.732;7.346;2023-04-27T07:47:35;98195.84;;;12.89;62.15
71996;BME280;59862;47.732;7.346;2023-04-27T07:50:04;98198.94;;;12.86;62.79
71996;BME280;59862;47.732;7.346;2023-04-27T07:52:33;98199.77;;;12.97;62.16
71996;BME280;59862;47.732;7.346;2023-04-27T07:55:00;98197.98;;;13.25;61.25
71996;BME280;59862;47.732;7.346;2023-04-27T07:57:28;98196.74;;;13.55;59.50
71996;BME280;59862;47.732;7.346;2023-04-27T07:59:56;98206.16;;;14.07;58.76
71996;BME280;59862;47.732;7.346;2023-04-27T08:02:26;98192.41;;;14.42;57.02
71996;BME280;59862;47.732;7.346;2023-04-27T08:04:57;98194.69;;;14.76;57.04
71996;BME280;59862;47.732;7.346;2023-04-27T08:07:24;98182.25;;;15.14;56.34
71996;BME280;59862;47.732;7.346;2023-04-27T08:09:52;98190.08;;;15.59;55.87
71996;BME280;59862;47.732;7.346;2023-04-27T08:12:19;98188.59;;;15.69;55.41
71996;BME280;59862;47.732;7.346;2023-04-27T08:14:47;98186.23;;;15.11;55.32
71996;BME280;59862;47.732;7.346;2023-04-27T08:17:14;98189.95;;;15.17;56.04
71996;BME280;59862;47.732;7.346;2023-04-27T08:19:44;98192.26;;;15.33;56.15
71996;BME280;59862;47.732;7.346;2023-04-27T08:22:11;98192.98;;;15.44;55.64
71996;BME280;59862;47.732;7.346;2023-04-27T08:24:39;98193.41;;;15.48;53.18
71996;BME280;59862;47.732;7.346;2023-04-27T08:27:07;98189.23;;;15.65;54.18
71996;BME280;59862;47.732;7.346;2023-04-27T08:29:34;98188.49;;;15.67;54.68
71996;BME280;59862;47.732;7.346;2023-04-27T08:32:03;98185.30;;;15.48;54.11
71996;BME280;59862;47.732;7.346;2023-04-27T08:34:31;98179.98;;;15.57;54.01
71996;BME280;59862;47.732;7.346;2023-04-27T08:36:58;98181.90;;;16.14;53.13
71996;BME280;59862;47.732;7.346;2023-04-27T08:39:27;98181.38;;;15.79;54.11
71996;BME280;59862;47.732;7.346;2023-04-27T08:41:55;98176.84;;;15.60;54.71
71996;BME280;59862;47.732;7.346;2023-04-27T08:44:22;98174.88;;;16.00;54.73
71996;BME280;59862;47.732;7.346;2023-04-27T08:46:50;98167.80;;;16.49;53.26
71996;BME280;59862;47.732;7.346;2023-04-27T08:49:18;98171.42;;;17.06;51.66
71996;BME280;59862;47.732;7.346;2023-04-27T08:51:46;98166.74;;;17.04;52.46
71996;BME280;59862;47.732;7.346;2023-04-27T08:54:13;98169.69;;;17.11;51.60
71996;BME280;59862;47.732;7.346;2023-04-27T08:56:41;98175.07;;;17.58;51.22
71996;BME280;59862;47.732;7.346;2023-04-27T08:59:13;98179.02;;;17.71;49.33
71996;BME280;59862;47.732;7.346;2023-04-27T09:01:47;98173.68;;;18.19;49.65
71996;BME280;59862;47.732;7.346;2023-04-27T09:04:16;98176.73;;;18.59;48.01
71996;BME280;59862;47.732;7.346;2023-04-27T09:06:45;98185.88;;;18.85;46.78
71996;BME280;59862;47.732;7.346;2023-04-27T09:09:24;98187.26;;;18.76;46.39
71996;BME280;59862;47.732;7.346;2023-04-27T09:11:52;98191.12;;;18.77;45.83
71996;BME280;59862;47.732;7.346;2023-04-27T09:14:21;98184.78;;;18.95;45.35
71996;BME280;59862;47.732;7.346;2023-04-27T09:16:56;98189.38;;;18.44;45.33
71996;BME280;59862;47.732;7.346;2023-04-27T09:19:26;98189.14;;;18.09;47.74
71996;BME280;59862;47.732;7.346;2023-04-27T09:22:10;98190.17;;;18.93;44.80
71996;BME280;59862;47.732;7.346;2023-04-27T09:24:50;98187.89;;;19.40;44.84
71996;BME280;59862;47.732;7.346;2023-04-27T09:27:21;98190.08;;;18.99;43.70
71996;BME280;59862;47.732;7.346;2023-04-27T09:29:48;98183.99;;;18.29;44.26
71996;BME280;59862;47.732;7.346;2023-04-27T09:32:17;98187.61;;;18.50;44.34
71996;BME280;59862;47.732;7.346;2023-04-27T09:34:46;98182.49;;;17.96;44.33
71996;BME280;59862;47.732;7.346;2023-04-27T09:37:14;98189.87;;;18.35;44.71
71996;BME280;59862;47.732;7.346;2023-04-27T09:39:43;98188.58;;;18.94;43.85
71996;BME280;59862;47.732;7.346;2023-04-27T09:42:12;98182.88;;;19.57;42.06
71996;BME280;59862;47.732;7.346;2023-04-27T09:44:41;98179.95;;;19.73;42.26
71996;BME280;59862;47.732;7.346;2023-04-27T09:47:09;98178.94;;;20.00;41.32
71996;BME280;59862;47.732;7.346;2023-04-27T09:49:37;98182.80;;;20.38;40.03
71996;BME280;59862;47.732;7.346;2023-04-27T09:52:04;98180.72;;;20.99;39.76
71996;BME280;59862;47.732;7.346;2023-04-27T09:54:33;98173.23;;;21.54;38.91
71996;BME280;59862;47.732;7.346;2023-04-27T09:57:22;98165.25;;;20.09;41.84
71996;BME280;59862;47.732;7.346;2023-04-27T10:06:20;98163.19;;;22.33;38.36
71996;BME280;59862;47.732;7.346;2023-04-27T10:08:12;98158.20;;;22.49;37.85
71996;BME280;59862;47.732;7.346;2023-04-27T10:10:47;98151.06;;;23.53;36.45
71996;BME280;59862;47.732;7.346;2023-04-27T10:13:23;98155.18;;;24.41;34.43
71996;BME280;59862;47.732;7.346;2023-04-27T10:15:52;98155.47;;;23.54;33.72
71996;BME280;59862;47.732;7.346;2023-04-27T10:18:30;98153.20;;;23.43;35.18
71996;BME280;59862;47.732;7.346;2023-04-27T10:21:08;98156.00;;;23.92;34.12
71996;BME280;59862;47.732;7.346;2023-04-27T10:23:48;98157.00;;;23.42;33.05
71996;BME280;59862;47.732;7.346;2023-04-27T10:26:24;98152.38;;;23.82;32.87
71996;BME280;59862;47.732;7.346;2023-04-27T10:28:57;98154.58;;;24.99;31.50
71996;BME280;59862;47.732;7.346;2023-04-27T10:31:28;98155.35;;;24.79;32.29
71996;BME280;59862;47.732;7.346;2023-04-27T10:34:09;98162.65;;;26.60;29.75
71996;BME280;59862;47.732;7.346;2023-04-27T10:36:38;98161.45;;;25.11;31.16
71996;BME280;59862;47.732;7.346;2023-04-27T10:39:16;98157.61;;;26.13;29.56
71996;BME280;59862;47.732;7.346;2023-04-27T10:41:55;98158.41;;;24.23;31.34
71996;BME280;59862;47.732;7.346;2023-04-27T10:44:26;98155.99;;;25.31;30.82
71996;BME280;59862;47.732;7.346;2023-04-27T10:46:58;98151.91;;;25.64;30.05
71996;BME280;59862;47.732;7.346;2023-04-27T10:49:28;98153.71;;;24.83;30.73
71996;BME280;59862;47.732;7.346;2023-04-27T10:51:57;98150.98;;;24.93;31.26
71996;BME280;59862;47.732;7.346;2023-04-27T10:54:28;98136.83;;;24.44;31.73
71996;BME280;59862;47.732;7.346;2023-04-27T10:57:09;98135.84;;;24.78;31.73
71996;BME280;59862;47.732;7.346;2023-04-27T10:59:49;98137.84;;;25.81;30.32
71996;BME280;59862;47.732;7.346;2023-04-27T11:02:23;98139.20;;;25.25;31.02
71996;BME280;59862;47.732;7.346;2023-04-27T11:04:46;98134.54;;;25.23;30.42
71996;BME280;59862;47.732;7.346;2023-04-27T11:07:22;98131.23;;;25.92;29.51
71996;BME280;59862;47.732;7.346;2023-04-27T11:09:44;98129.34;;;25.65;29.42
71996;BME280;59862;47.732;7.346;2023-04-27T11:12:13;98124.42;;;25.46;30.34
71996;BME280;59862;47.732;7.346;2023-04-27T11:14:41;98122.15;;;24.14;31.59
71996;BME280;59862;47.732;7.346;2023-04-27T11:17:08;98121.64;;;25.41;29.52
71996;BME280;59862;47.732;7.346;2023-04-27T11:19:47;98121.73;;;24.44;30.82
71996;BME280;59862;47.732;7.346;2023-04-27T11:22:15;98116.95;;;24.17;31.25
71996;BME280;59862;47.732;7.346;2023-04-27T11:24:47;98110.36;;;23.03;32.25
71996;BME280;59862;47.732;7.346;2023-04-27T11:27:15;98105.58;;;23.49;32.62
71996;BME280;59862;47.732;7.346;2023-04-27T11:29:43;98100.74;;;25.40;30.74
71996;BME280;59862;47.732;7.346;2023-04-27T11:32:19;98101.85;;;25.19;29.97
71996;BME280;59862;47.732;7.346;2023-04-27T11:34:51;98102.36;;;25.92;28.42
71996;BME280;59862;47.732;7.346;2023-04-27T11:37:26;98104.15;;;26.34;28.71
71996;BME280;59862;47.732;7.346;2023-04-27T11:39:54;98105.27;;;26.89;27.03
71996;BME280;59862;47.732;7.346;2023-04-27T11:42:25;98101.90;;;26.97;26.17
71996;BME280;59862;47.732;7.346;2023-04-27T11:45:05;98107.13;;;26.43;27.93
71996;BME280;59862;47.732;7.346;2023-04-27T11:47:33;98101.02;;;25.67;29.56
71996;BME280;59862;47.732;7.346;2023-04-27T11:50:04;98101.75;;;24.69;30.05
71996;BME280;59862;47.732;7.346;2023-04-27T11:52:32;98092.69;;;24.61;30.57
71996;BME280;59862;47.732;7.346;2023-04-27T11:55:01;98093.02;;;25.88;28.90
71996;BME280;59862;47.732;7.346;2023-04-27T11:57:31;98104.52;;;26.69;28.07
71996;BME280;59862;47.732;7.346;2023-04-27T12:00:00;98098.53;;;24.77;28.77
71996;BME280;59862;47.732;7.346;2023-04-27T12:02:29;98089.50;;;25.09;29.55
71996;BME280;59862;47.732;7.346;2023-04-27T12:04:58;98090.08;;;27.31;27.43
71996;BME280;59862;47.732;7.346;2023-04-27T12:07:26;98088.55;;;28.72;26.01
71996;BME280;59862;47.732;7.346;2023-04-27T12:09:53;98091.66;;;29.69;23.40
71996;BME280;59862;47.732;7.346;2023-04-27T12:12:21;98097.06;;;27.54;24.84
71996;BME280;59862;47.732;7.346;2023-04-27T12:14:49;98089.30;;;27.59;25.83
71996;BME280;59862;47.732;7.346;2023-04-27T12:17:17;98089.13;;;26.11;27.08
71996;BME280;59862;47.732;7.346;2023-04-27T12:19:45;98087.20;;;24.61;30.67
71996;BME280;59862;47.732;7.346;2023-04-27T12:22:13;98075.95;;;24.65;28.75
71996;BME280;59862;47.732;7.346;2023-04-27T12:24:41;98069.72;;;24.87;29.78
71996;BME280;59862;47.732;7.346;2023-04-27T12:27:09;98071.66;;;26.36;28.48
71996;BME280;59862;47.732;7.346;2023-04-27T12:29:37;98063.52;;;27.71;25.61
71996;BME280;59862;47.732;7.346;2023-04-27T12:32:05;98075.22;;;29.11;23.67
71996;BME280;59862;47.732;7.346;2023-04-27T12:34:33;98085.19;;;30.20;22.56
71996;BME280;59862;47.732;7.346;2023-04-27T12:37:01;98079.94;;;30.86;21.36
71996;BME280;59862;47.732;7.346;2023-04-27T12:39:29;98077.16;;;30.97;21.92
71996;BME280;59862;47.732;7.346;2023-04-27T12:41:56;98081.20;;;31.02;19.81
71996;BME280;59862;47.732;7.346;2023-04-27T12:44:24;98071.56;;;31.11;20.09
71996;BME280;59862;47.732;7.346;2023-04-27T12:46:52;98070.39;;;32.00;19.96
71996;BME280;59862;47.732;7.346;2023-04-27T12:49:20;98079.13;;;30.58;21.13
71996;BME280;59862;47.732;7.346;2023-04-27T12:51:47;98074.28;;;29.02;21.67
71996;BME280;59862;47.732;7.346;2023-04-27T12:54:17;98072.80;;;27.80;23.38
71996;BME280;59862;47.732;7.346;2023-04-27T12:56:44;98076.19;;;29.84;22.09
71996;BME280;59862;47.732;7.346;2023-04-27T12:59:12;98074.11;;;30.20;21.40
71996;BME280;59862;47.732;7.346;2023-04-27T13:01:41;98065.05;;;27.82;23.62
71996;BME280;59862;47.732;7.346;2023-04-27T13:04:08;98066.91;;;26.52;25.29
71996;BME280;59862;47.732;7.346;2023-04-27T13:06:36;98069.56;;;26.20;25.45
71996;BME280;59862;47.732;7.346;2023-04-27T13:09:03;98062.07;;;26.82;26.05
71996;BME280;59862;47.732;7.346;2023-04-27T13:11:32;98055.70;;;28.89;23.64
71996;BME280;59862;47.732;7.346;2023-04-27T13:13:59;98060.48;;;30.10;21.58
71996;BME280;59862;47.732;7.346;2023-04-27T13:16:27;98059.01;;;32.84;19.77